Time;durP1;ratioP1;P1;durP2;ratioP2;P2;SDS_P1;SDS_P2;PMS_P1;PMS_P2;Temp;Humidity;BMP_temperature;BMP_pressure;BME280_temperature;BME280_humidity;BME280_pressure;Samples;Min_cycle;Max_cycle;Signal;HPM_P1;HPM_P2
2022/03/08 00:00:24;;;;;;;9.80;6.35;;;0.00;99.90;;;;;;5051746;28;20466;-64
2022/03/08 00:02:49;;;;;;;;;;;0.10;99.90;;;;;;5034961;28;20053;-63
2022/03/08 00:05:16;;;;;;;8.98;5.78;;;0.30;99.90;;;;;;5051123;28;19947;-64
2022/03/08 00:07:41;;;;;;;10.50;6.10;;;0.00;99.90;;;;;;5051373;28;20234;-65
2022/03/08 00:10:08;;;;;;;9.60;5.65;;;-0.10;99.90;;;;;;5050825;28;20081;-65
2022/03/08 00:12:35;;;;;;;9.50;6.40;;;-0.10;99.90;;;;;;5050606;28;20045;-65
2022/03/08 00:15:01;;;;;;;10.38;6.22;;;-0.20;99.90;;;;;;5051101;28;20056;-67
2022/03/08 00:17:26;;;;;;;9.18;6.72;;;-0.30;99.90;;;;;;5051464;28;20060;-66
2022/03/08 00:19:52;;;;;;;10.00;6.15;;;-0.30;99.90;;;;;;5051287;28;20053;-65
2022/03/08 00:22:18;;;;;;;8.95;6.03;;;-0.40;99.90;;;;;;5051354;28;20139;-64
2022/03/08 00:24:43;;;;;;;8.90;6.28;;;-0.40;99.90;;;;;;5054670;28;20053;-63
2022/03/08 00:27:09;;;;;;;9.95;6.25;;;-0.50;99.90;;;;;;5054375;28;20143;-65
2022/03/08 00:29:34;;;;;;;11.77;6.85;;;-0.50;99.90;;;;;;5056212;28;20052;-64
2022/03/08 00:32:00;;;;;;;11.73;6.38;;;-0.40;99.90;;;;;;5055159;28;20049;-66
2022/03/08 00:34:26;;;;;;;8.95;5.93;;;-0.60;99.90;;;;;;5053719;28;20055;-66
2022/03/08 00:36:51;;;;;;;9.20;6.22;;;-0.60;99.90;;;;;;5034623;28;20057;-66
2022/03/08 00:39:18;;;;;;;12.13;6.50;;;-0.60;99.90;;;;;;5040553;28;20140;-64
2022/03/08 00:41:44;;;;;;;9.88;5.90;;;-0.70;99.90;;;;;;5052407;28;20057;-65
2022/03/08 00:44:10;;;;;;;8.77;5.72;;;-0.70;99.90;;;;;;5030880;28;20402;-63
2022/03/08 00:46:35;;;;;;;9.48;5.80;;;-0.70;99.90;;;;;;5034572;28;20057;-65
2022/03/08 00:49:01;;;;;;;8.85;6.00;;;-0.70;99.90;;;;;;5044318;28;20068;-65
2022/03/08 00:51:27;;;;;;;10.60;6.85;;;-0.80;99.90;;;;;;5054065;28;20618;-63
2022/03/08 00:53:52;;;;;;;9.90;6.43;;;-0.70;99.90;;;;;;5052158;28;20052;-64
2022/03/08 00:56:18;;;;;;;11.95;6.80;;;-0.70;99.90;;;;;;5054193;28;20515;-64
2022/03/08 00:58:44;;;;;;;10.90;6.70;;;-0.60;99.90;;;;;;5054222;28;20197;-66
2022/03/08 01:01:10;;;;;;;13.32;7.10;;;-0.70;99.90;;;;;;5023816;28;20492;-64
2022/03/08 01:03:35;;;;;;;10.60;6.43;;;-0.70;99.90;;;;;;5054802;28;20041;-65
2022/03/08 01:06:01;;;;;;;12.13;6.75;;;-0.60;99.90;;;;;;5054496;28;20057;-64
2022/03/08 01:08:26;;;;;;;11.10;5.80;;;-0.70;99.90;;;;;;5053945;28;20065;-64
2022/03/08 01:10:52;;;;;;;10.00;6.07;;;-0.80;99.90;;;;;;5055442;28;20067;-64
2022/03/08 01:13:18;;;;;;;14.90;7.15;;;-0.60;99.90;;;;;;5055223;28;20116;-66
2022/03/08 01:15:44;;;;;;;12.52;7.97;;;-0.80;99.90;;;;;;5055289;28;20049;-64
2022/03/08 01:18:11;;;;;;;9.73;6.80;;;-0.70;99.90;;;;;;5053739;28;20132;-61
2022/03/08 01:20:37;;;;;;;10.43;6.38;;;-0.80;99.90;;;;;;5054138;28;20520;-62
2022/03/08 01:23:03;;;;;;;10.93;6.95;;;-0.90;99.90;;;;;;5053702;28;20175;-63
2022/03/08 01:25:28;;;;;;;12.30;6.38;;;-0.80;99.90;;;;;;5053662;28;20135;-64
2022/03/08 01:27:55;;;;;;;10.18;6.68;;;-0.80;99.90;;;;;;5053525;28;20159;-63
2022/03/08 01:30:22;;;;;;;9.20;6.03;;;-0.90;99.90;;;;;;5053627;28;20045;-62
2022/03/08 01:32:48;;;;;;;12.23;6.50;;;-0.80;99.90;;;;;;5053939;28;20048;-63
2022/03/08 01:35:15;;;;;;;9.32;6.65;;;-0.80;99.90;;;;;;5053419;28;20435;-63
2022/03/08 01:37:41;;;;;;;9.15;6.20;;;-0.90;99.90;;;;;;5053899;28;20048;-63
2022/03/08 01:40:09;;;;;;;11.80;6.78;;;-0.90;99.90;;;;;;5053498;28;20468;-64
2022/03/08 01:42:34;;;;;;;11.05;6.60;;;-0.90;99.90;;;;;;5053267;28;20053;-62
2022/03/08 01:45:00;;;;;;;10.35;6.60;;;-1.00;99.90;;;;;;5053413;28;20195;-63
2022/03/08 01:47:27;;;;;;;12.95;7.45;;;-1.00;99.90;;;;;;5053113;28;20500;-62
2022/03/08 01:49:53;;;;;;;13.13;6.88;;;-1.00;99.90;;;;;;5055059;28;20048;-63
2022/03/08 01:52:21;;;;;;;11.23;7.00;;;-1.00;99.90;;;;;;5053242;28;20049;-64
2022/03/08 01:54:47;;;;;;;11.55;7.25;;;-0.90;99.90;;;;;;5044247;28;20053;-64
2022/03/08 01:57:13;;;;;;;10.35;6.88;;;-0.90;99.90;;;;;;5049064;28;20085;-61
2022/03/08 01:59:40;;;;;;;12.05;7.70;;;-1.00;99.90;;;;;;5041978;28;20472;-64
2022/03/08 02:02:06;;;;;;;13.85;7.53;;;-1.00;99.90;;;;;;5042016;28;20057;-62
2022/03/08 02:04:32;;;;;;;11.85;7.13;;;-1.10;99.90;;;;;;5049495;28;20054;-63
2022/03/08 02:06:57;;;;;;;12.70;7.28;;;-1.00;99.90;;;;;;5053494;28;20509;-63
2022/03/08 02:09:23;;;;;;;11.90;7.63;;;-1.00;99.90;;;;;;5035427;28;20045;-63
2022/03/08 02:11:48;;;;;;;11.93;7.85;;;-1.00;99.90;;;;;;5032524;28;20061;-63
2022/03/08 02:14:18;;;;;;;12.02;7.47;;;-1.00;99.90;;;;;;5033003;28;20050;-61
2022/03/08 02:16:44;;;;;;;12.15;7.40;;;-1.00;99.90;;;;;;5049593;28;20056;-62
2022/03/08 02:19:11;;;;;;;12.05;7.35;;;-1.00;99.90;;;;;;5066017;28;20058;-62
2022/03/08 02:21:37;;;;;;;13.65;8.80;;;-1.00;99.90;;;;;;5034065;28;20049;-64
2022/03/08 02:24:03;;;;;;;12.57;8.20;;;-1.20;99.90;;;;;;5052543;28;20052;-64
2022/03/08 02:26:29;;;;;;;14.05;8.60;;;-1.10;99.90;;;;;;5051984;28;20072;-65
2022/03/08 02:28:54;;;;;;;13.65;8.80;;;-1.10;99.90;;;;;;5052412;28;20056;-61
2022/03/08 02:31:20;;;;;;;13.50;8.73;;;-1.10;99.90;;;;;;5052726;28;20481;-63
2022/03/08 02:33:45;;;;;;;14.57;8.32;;;-1.20;99.90;;;;;;5052479;28;20138;-63
2022/03/08 02:36:11;;;;;;;14.07;9.43;;;-1.20;99.90;;;;;;5052705;28;20053;-63
2022/03/08 02:38:37;;;;;;;14.90;9.07;;;-1.20;99.90;;;;;;5052539;28;20068;-67
2022/03/08 02:41:02;;;;;;;16.13;9.55;;;-1.10;99.90;;;;;;5052598;28;20060;-65
2022/03/08 02:43:28;;;;;;;13.75;8.73;;;-1.00;99.90;;;;;;5051451;28;20478;-65
2022/03/08 02:45:54;;;;;;;14.38;9.02;;;-0.80;99.90;;;;;;5051983;28;20050;-65
2022/03/08 02:48:20;;;;;;;15.57;9.55;;;-0.80;99.90;;;;;;5052154;28;20481;-64
2022/03/08 02:50:45;;;;;;;14.60;9.75;;;-0.70;99.90;;;;;;5052589;28;20091;-65
2022/03/08 02:53:11;;;;;;;16.08;10.80;;;-0.80;99.90;;;;;;5052472;28;20390;-65
2022/03/08 02:55:37;;;;;;;15.90;8.80;;;-0.80;99.90;;;;;;5052582;28;20469;-62
2022/03/08 02:58:05;;;;;;;15.48;9.98;;;-0.80;99.90;;;;;;5051115;28;20049;-63
2022/03/08 03:00:32;;;;;;;18.13;9.68;;;-0.80;99.90;;;;;;5052209;28;20490;-63
2022/03/08 03:02:58;;;;;;;15.23;9.93;;;-0.80;99.90;;;;;;5053448;28;20434;-64
2022/03/08 03:05:24;;;;;;;16.75;8.95;;;-0.80;99.90;;;;;;5041145;28;20053;-64
2022/03/08 03:07:49;;;;;;;15.55;9.25;;;-0.80;99.90;;;;;;5037413;28;20527;-64
2022/03/08 03:10:18;;;;;;;16.80;10.38;;;-0.60;99.90;;;;;;5032067;28;20045;-64
2022/03/08 03:12:44;;;;;;;15.35;9.88;;;-0.90;99.90;;;;;;5046075;28;20115;-63
2022/03/08 03:15:12;;;;;;;15.85;10.05;;;-0.90;99.90;;;;;;5034275;28;20061;-64
2022/03/08 03:17:38;;;;;;;16.70;9.48;;;-0.80;99.90;;;;;;5041123;28;20053;-63
2022/03/08 03:20:06;;;;;;;17.35;10.10;;;-0.90;99.90;;;;;;5041870;28;20123;-64
2022/03/08 03:22:31;;;;;;;17.98;10.85;;;-0.80;99.90;;;;;;5052716;28;20061;-63
2022/03/08 03:24:57;;;;;;;16.05;10.75;;;-1.00;99.90;;;;;;5021540;28;20054;-62
2022/03/08 03:27:22;;;;;;;17.60;10.57;;;-0.90;99.90;;;;;;5044740;28;20052;-63
2022/03/08 03:29:48;;;;;;;17.27;11.32;;;-1.00;99.90;;;;;;5036320;28;20060;-66
2022/03/08 03:32:14;;;;;;;17.77;10.75;;;-0.80;99.90;;;;;;5042270;28;20111;-64
2022/03/08 03:34:39;;;;;;;19.38;11.23;;;-0.80;99.90;;;;;;5031717;28;20474;-66
2022/03/08 03:37:05;;;;;;;17.58;11.77;;;-0.90;99.90;;;;;;5048078;28;20060;-64
2022/03/08 03:39:31;;;;;;;16.40;10.02;;;-0.90;99.90;;;;;;5015243;28;20049;-67
2022/03/08 03:41:56;;;;;;;17.58;11.32;;;-0.90;99.90;;;;;;5040343;28;20053;-63
2022/03/08 03:44:22;;;;;;;17.73;10.98;;;-0.90;99.90;;;;;;5051222;28;20049;-65
2022/03/08 03:46:48;;;;;;;18.88;11.07;;;-0.90;99.90;;;;;;5051266;28;20056;-66
2022/03/08 03:49:14;;;;;;;19.48;11.02;;;-1.00;99.90;;;;;;5051217;28;20136;-64
2022/03/08 03:51:40;;;;;;;15.75;10.65;;;-0.60;99.90;;;;;;5047060;28;20449;-63
2022/03/08 03:54:05;;;;;;;21.00;11.63;;;-0.90;99.90;;;;;;5041545;28;20088;-64
2022/03/08 03:56:31;;;;;;;22.35;13.15;;;-0.90;99.90;;;;;;5051290;28;20060;-64
2022/03/08 03:58:57;;;;;;;18.75;12.00;;;-0.80;99.90;;;;;;5055287;28;20044;-66
2022/03/08 04:01:22;;;;;;;17.90;11.68;;;-0.90;99.90;;;;;;5044721;28;20497;-63
2022/03/08 04:03:48;;;;;;;17.20;12.13;;;-0.80;99.90;;;;;;5054852;28;20052;-64
2022/03/08 04:06:13;;;;;;;18.17;10.93;;;-0.80;99.90;;;;;;5055722;28;20128;-64
2022/03/08 04:08:39;;;;;;;17.30;11.13;;;-0.70;99.90;;;;;;5055332;28;20044;-65
2022/03/08 04:11:05;;;;;;;19.50;12.45;;;-0.70;99.90;;;;;;5054406;28;20063;-64
2022/03/08 04:13:30;;;;;;;21.15;12.15;;;-0.80;99.90;;;;;;5049936;28;20071;-64
2022/03/08 04:15:56;;;;;;;17.98;12.20;;;-0.80;99.90;;;;;;5035532;28;20512;-64
2022/03/08 04:18:21;;;;;;;23.20;12.38;;;-0.80;99.90;;;;;;5036305;28;20044;-63
2022/03/08 04:20:47;;;;;;;16.70;11.43;;;-0.60;99.90;;;;;;5036756;28;20069;-63
2022/03/08 04:23:12;;;;;;;20.33;11.95;;;-0.70;99.90;;;;;;5052358;28;20143;-64
2022/03/08 04:25:38;;;;;;;22.55;13.02;;;-0.80;99.90;;;;;;5052142;28;20049;-64
2022/03/08 04:28:05;;;;;;;20.42;12.23;;;-0.80;99.90;;;;;;5049955;28;20053;-63
2022/03/08 04:30:31;;;;;;;24.30;12.77;;;-0.80;99.90;;;;;;5043839;28;20543;-63
2022/03/08 04:32:57;;;;;;;20.67;12.52;;;-0.80;99.90;;;;;;5041048;28;20128;-64
2022/03/08 04:35:23;;;;;;;19.88;12.20;;;-0.70;99.90;;;;;;5066819;28;20054;-65
2022/03/08 04:37:49;;;;;;;21.48;12.85;;;-0.60;99.90;;;;;;5059940;28;20067;-64
2022/03/08 04:40:15;;;;;;;19.70;12.35;;;-0.80;99.90;;;;;;5052896;28;20049;-66
2022/03/08 04:42:42;;;;;;;23.23;13.30;;;-0.80;99.90;;;;;;5054832;28;20452;-65
2022/03/08 04:45:10;;;;;;;22.55;12.65;;;-0.40;99.90;;;;;;5054988;28;20049;-63
2022/03/08 04:47:36;;;;;;;21.15;13.48;;;-0.80;99.90;;;;;;5038915;28;20100;-66
2022/03/08 04:50:08;;;;;;;19.30;13.25;;;-0.80;99.90;;;;;;5051294;28;20045;-64
2022/03/08 04:52:34;;;;;;;22.17;13.10;;;-0.70;99.90;;;;;;5051639;28;20406;-65
2022/03/08 04:55:00;;;;;;;20.77;13.45;;;-0.60;99.90;;;;;;5040012;28;20299;-63
2022/03/08 04:57:25;;;;;;;21.02;13.07;;;-0.60;99.90;;;;;;5034310;28;20130;-67
2022/03/08 04:59:51;;;;;;;22.50;13.20;;;-0.50;99.90;;;;;;5042764;28;20061;-65
2022/03/08 05:02:17;;;;;;;21.85;13.52;;;-0.80;99.90;;;;;;5047487;28;20572;-63
2022/03/08 05:04:42;;;;;;;19.63;12.90;;;-0.70;99.90;;;;;;5062295;28;20075;-64
2022/03/08 05:07:08;;;;;;;21.08;13.73;;;-0.80;99.90;;;;;;5067183;28;20103;-64
2022/03/08 05:09:33;;;;;;;22.73;13.45;;;-0.80;99.90;;;;;;5069797;28;20092;-65
2022/03/08 05:11:59;;;;;;;20.75;12.98;;;-0.70;99.90;;;;;;5052711;28;20052;-65
2022/03/08 05:14:25;;;;;;;21.38;13.13;;;-0.70;99.90;;;;;;5049615;28;20045;-65
2022/03/08 05:16:52;;;;;;;22.58;12.25;;;-0.60;99.90;;;;;;5044004;28;20056;-65
2022/03/08 05:19:17;;;;;;;20.17;12.10;;;-0.70;99.90;;;;;;5053731;28;20057;-64
2022/03/08 05:21:43;;;;;;;19.25;11.73;;;-0.80;99.90;;;;;;5053946;28;20060;-63
2022/03/08 05:24:09;;;;;;;20.83;13.38;;;-0.80;99.90;;;;;;5054519;28;20049;-63
2022/03/08 05:26:37;;;;;;;20.13;12.73;;;-0.70;99.90;;;;;;5053419;28;20057;-65
2022/03/08 05:29:06;;;;;;;21.27;12.35;;;-0.90;99.90;;;;;;5054321;28;20545;-66
2022/03/08 05:31:32;;;;;;;18.58;12.45;;;-0.80;99.90;;;;;;5053475;28;20055;-65
2022/03/08 05:33:57;;;;;;;15.82;11.43;;;-0.90;99.90;;;;;;5054103;28;20057;-63
2022/03/08 05:36:23;;;;;;;19.08;12.15;;;-0.90;99.90;;;;;;5053253;28;20053;-63
2022/03/08 05:38:49;;;;;;;20.92;13.27;;;-1.00;99.90;;;;;;5053683;28;20083;-64
2022/03/08 05:41:15;;;;;;;21.70;12.88;;;-1.00;99.90;;;;;;5052959;28;20080;-65
2022/03/08 05:43:40;;;;;;;18.23;11.82;;;-1.10;99.90;;;;;;5053979;28;20504;-64
2022/03/08 05:46:06;;;;;;;22.52;12.82;;;-0.90;99.90;;;;;;5054223;28;20524;-63
2022/03/08 05:48:31;;;;;;;19.25;12.30;;;-1.10;99.90;;;;;;5052924;28;20049;-64
2022/03/08 05:50:57;;;;;;;20.83;12.77;;;-1.10;99.90;;;;;;5053526;28;20052;-64
2022/03/08 05:53:23;;;;;;;18.85;12.48;;;-1.20;99.90;;;;;;5053585;28;20052;-65
2022/03/08 05:55:48;;;;;;;19.92;12.77;;;-1.20;99.90;;;;;;5053485;28;20492;-65
2022/03/08 05:58:14;;;;;;;21.38;12.18;;;-1.20;99.90;;;;;;5053579;28;20081;-65
2022/03/08 06:00:39;;;;;;;19.55;12.13;;;-1.20;99.90;;;;;;5053863;28;20068;-62
2022/03/08 06:03:05;;;;;;;21.90;12.40;;;-1.10;99.90;;;;;;5052961;28;20377;-65
2022/03/08 06:05:31;;;;;;;24.00;13.00;;;-1.10;99.90;;;;;;5052980;28;20055;-67
2022/03/08 06:07:57;;;;;;;21.88;13.60;;;-1.20;99.90;;;;;;5053077;28;20044;-66
2022/03/08 06:10:22;;;;;;;18.55;12.43;;;-1.30;99.90;;;;;;5053228;28;20405;-64
2022/03/08 06:12:48;;;;;;;19.83;11.82;;;-1.20;99.90;;;;;;5035431;28;20079;-64
2022/03/08 06:15:13;;;;;;;20.15;12.32;;;-1.20;99.90;;;;;;5051421;28;20053;-64
2022/03/08 06:17:39;;;;;;;20.00;12.07;;;-1.30;99.90;;;;;;5041428;28;20182;-64
2022/03/08 06:20:05;;;;;;;18.85;11.88;;;-1.30;99.90;;;;;;5048561;28;20072;-65
2022/03/08 06:22:31;;;;;;;20.95;12.35;;;-1.30;99.90;;;;;;5046176;28;20060;-63
2022/03/08 06:24:57;;;;;;;20.80;12.25;;;-1.40;99.90;;;;;;5038948;28;20053;-63
2022/03/08 06:27:23;;;;;;;17.90;12.40;;;-1.40;99.90;;;;;;5052297;28;20041;-64
2022/03/08 06:29:51;;;;;;;20.02;13.40;;;-1.40;99.90;;;;;;5052799;28;20069;-66
2022/03/08 06:32:17;;;;;;;19.10;12.10;;;-1.30;99.90;;;;;;5052359;28;20053;-65
2022/03/08 06:34:43;;;;;;;18.83;11.88;;;-1.30;99.90;;;;;;5052279;28;20091;-66
2022/03/08 06:37:08;;;;;;;19.95;12.55;;;-1.10;99.90;;;;;;5053641;28;20080;-64
2022/03/08 06:39:34;;;;;;;19.90;11.88;;;-1.20;99.90;;;;;;5052316;28;20044;-66
2022/03/08 06:41:59;;;;;;;22.65;12.90;;;-1.10;99.90;;;;;;5052114;28;20477;-65
2022/03/08 06:44:25;;;;;;;22.73;12.65;;;-1.00;99.90;;;;;;5052143;28;20476;-66
2022/03/08 06:46:50;;;;;;;19.83;12.05;;;-0.90;99.90;;;;;;5052405;28;20045;-65
2022/03/08 06:49:16;;;;;;;20.38;12.27;;;-0.90;99.90;;;;;;5052027;28;20494;-64
2022/03/08 06:51:42;;;;;;;20.27;12.38;;;-0.70;99.90;;;;;;5051280;28;20040;-64
2022/03/08 06:54:08;;;;;;;20.15;12.07;;;-0.50;99.90;;;;;;5052463;28;20102;-66
2022/03/08 06:56:35;;;;;;;18.58;12.27;;;-0.40;99.90;;;;;;5051381;28;20087;-63
2022/03/08 06:59:02;;;;;;;18.63;12.25;;;-0.40;99.90;;;;;;5051645;28;20118;-65
2022/03/08 07:01:29;;;;;;;17.48;12.65;;;-0.20;99.90;;;;;;5052538;28;20135;-67
2022/03/08 07:03:55;;;;;;;17.42;12.30;;;0.10;99.90;;;;;;5050943;28;20372;-63
2022/03/08 07:06:22;;;;;;;17.02;11.35;;;0.00;99.90;;;;;;5050701;28;20044;-65
2022/03/08 07:08:48;;;;;;;16.88;11.63;;;0.30;99.90;;;;;;5050912;28;20497;-63
2022/03/08 07:11:14;;;;;;;17.63;11.40;;;0.40;99.90;;;;;;5049893;28;20061;-67
2022/03/08 07:13:40;;;;;;;20.88;12.80;;;0.50;99.90;;;;;;5050798;28;20045;-65
2022/03/08 07:16:06;;;;;;;16.77;11.27;;;0.60;99.90;;;;;;5050597;28;20123;-66
2022/03/08 07:18:32;;;;;;;16.70;10.85;;;0.60;99.90;;;;;;5050620;28;20128;-65
2022/03/08 07:21:00;;;;;;;16.73;11.65;;;0.90;99.90;;;;;;5050926;28;20099;-65
2022/03/08 07:23:27;;;;;;;16.38;10.90;;;0.90;99.90;;;;;;5051632;28;20083;-65
2022/03/08 07:25:53;;;;;;;14.90;11.30;;;1.00;99.90;;;;;;5051602;28;20060;-65
2022/03/08 07:28:18;;;;;;;17.33;10.90;;;1.00;99.90;;;;;;5052159;28;20075;-66
2022/03/08 07:30:44;;;;;;;17.45;11.10;;;0.90;99.90;;;;;;5050601;28;20503;-64
2022/03/08 07:33:09;;;;;;;15.65;11.00;;;1.30;99.90;;;;;;5048608;28;20124;-65
2022/03/08 07:35:35;;;;;;;17.38;11.25;;;1.30;99.90;;;;;;5064408;28;20041;-65
2022/03/08 07:38:00;;;;;;;19.95;12.73;;;1.50;99.90;;;;;;5065680;28;20579;-65
2022/03/08 07:40:26;;;;;;;14.77;10.15;;;1.80;99.90;;;;;;5050340;28;20057;-63
2022/03/08 07:42:53;;;;;;;15.07;10.23;;;1.70;99.90;;;;;;5036724;28;20041;-64
2022/03/08 07:45:18;;;;;;;15.52;10.23;;;1.90;99.90;;;;;;5046997;28;20337;-65
2022/03/08 07:47:44;;;;;;;16.05;10.95;;;2.00;99.90;;;;;;5051126;28;20102;-65
2022/03/08 07:50:10;;;;;;;16.13;11.05;;;2.30;99.90;;;;;;5050686;28;20045;-64
2022/03/08 07:52:35;;;;;;;17.83;10.45;;;2.30;99.90;;;;;;5051371;28;20170;-64
2022/03/08 07:55:01;;;;;;;13.35;9.98;;;2.30;99.90;;;;;;5051172;28;20500;-65
2022/03/08 07:57:27;;;;;;;15.38;9.82;;;2.50;99.90;;;;;;5050592;28;20412;-65
2022/03/08 07:59:52;;;;;;;14.23;9.77;;;2.40;99.90;;;;;;5051222;28;20129;-65
2022/03/08 08:02:18;;;;;;;14.20;10.63;;;2.80;99.90;;;;;;5050359;28;20061;-64
2022/03/08 08:04:43;;;;;;;15.25;10.25;;;2.70;99.90;;;;;;5051588;28;20132;-64
2022/03/08 08:07:09;;;;;;;14.93;9.75;;;2.80;99.90;;;;;;5050470;28;20041;-66
2022/03/08 08:09:34;;;;;;;18.10;9.90;;;2.90;99.90;;;;;;5047832;28;20081;-65
2022/03/08 08:12:01;;;;;;;12.65;9.85;;;3.00;99.90;;;;;;5048210;28;20045;-65
2022/03/08 08:14:26;;;;;;;15.95;9.73;;;3.10;99.90;;;;;;5050031;28;20106;-65
2022/03/08 08:16:52;;;;;;;16.63;10.13;;;3.20;99.90;;;;;;5048566;28;20061;-65
2022/03/08 08:19:18;;;;;;;14.18;9.80;;;3.30;99.90;;;;;;5051329;28;20089;-64
2022/03/08 08:21:43;;;;;;;14.00;10.07;;;3.40;99.90;;;;;;5051519;28;20434;-65
2022/03/08 08:24:09;;;;;;;14.15;9.88;;;3.50;99.90;;;;;;5050833;28;20057;-64
2022/03/08 08:26:35;;;;;;;15.85;10.82;;;3.60;99.90;;;;;;5050457;28;20401;-65
2022/03/08 08:29:01;;;;;;;13.02;9.80;;;3.60;99.90;;;;;;5051167;28;20059;-64
2022/03/08 08:31:28;;;;;;;14.73;10.55;;;3.70;99.90;;;;;;5052296;28;20508;-65
2022/03/08 08:33:54;;;;;;;14.93;10.52;;;3.90;99.90;;;;;;5051324;28;20136;-65
2022/03/08 08:36:20;;;;;;;12.40;9.57;;;4.00;99.90;;;;;;5050053;28;20049;-63
2022/03/08 08:38:45;;;;;;;13.80;9.90;;;4.10;99.90;;;;;;5050494;28;20107;-66
2022/03/08 08:41:11;;;;;;;12.80;9.48;;;4.20;99.90;;;;;;5050389;28;20514;-64
2022/03/08 08:43:37;;;;;;;13.27;9.48;;;4.30;99.90;;;;;;5050376;28;20118;-65
2022/03/08 08:46:03;;;;;;;13.48;9.73;;;4.50;99.90;;;;;;5054724;28;20481;-66
2022/03/08 08:48:29;;;;;;;13.65;10.38;;;4.60;99.90;;;;;;5054630;28;20131;-65
2022/03/08 08:50:55;;;;;;;14.13;10.38;;;4.70;99.90;;;;;;5054906;28;20100;-64
2022/03/08 08:53:22;;;;;;;11.70;9.52;;;4.80;99.90;;;;;;5037750;28;20497;-65
2022/03/08 08:55:48;;;;;;;12.05;10.18;;;4.90;99.90;;;;;;5054709;28;20119;-63
2022/03/08 08:58:14;;;;;;;14.45;10.20;;;5.10;99.90;;;;;;5053460;28;20088;-62
2022/03/08 09:00:40;;;;;;;12.32;10.30;;;5.20;99.90;;;;;;5053936;28;20103;-62
2022/03/08 09:03:14;;;;;;;11.90;9.77;;;5.20;99.90;;;;;;5053424;28;20472;-63
2022/03/08 09:05:43;;;;;;;13.55;10.23;;;5.30;99.90;;;;;;5053170;28;20385;-63
2022/03/08 09:08:10;;;;;;;13.38;10.48;;;5.40;99.90;;;;;;5052745;28;20442;-63
2022/03/08 09:10:36;;;;;;;11.50;9.88;;;5.50;99.90;;;;;;5055789;28;20049;-65
2022/03/08 09:13:03;;;;;;;12.43;10.07;;;5.60;99.90;;;;;;5037158;28;20106;-64
2022/03/08 09:15:28;;;;;;;11.50;9.65;;;5.70;99.90;;;;;;5020143;28;20041;-65
2022/03/08 09:17:54;;;;;;;13.05;10.38;;;5.80;99.90;;;;;;5051566;28;20041;-63
2022/03/08 09:20:20;;;;;;;15.23;10.65;;;5.90;99.90;;;;;;5051888;28;20516;-69
2022/03/08 09:22:46;;;;;;;12.77;10.00;;;6.00;99.90;;;;;;5050253;28;20057;-64
2022/03/08 09:25:11;;;;;;;11.63;9.32;;;6.00;99.90;;;;;;5050355;28;20072;-66
2022/03/08 09:27:37;;;;;;;11.75;8.80;;;6.10;99.90;;;;;;5053587;28;20110;-66
2022/03/08 09:30:04;;;;;;;13.02;9.73;;;6.20;99.90;;;;;;5051963;28;20486;-65
2022/03/08 09:32:30;;;;;;;11.00;9.50;;;6.30;99.90;;;;;;5053579;28;20045;-66
2022/03/08 09:34:56;;;;;;;11.65;9.93;;;6.40;99.90;;;;;;5053408;28;20126;-64
2022/03/08 09:37:21;;;;;;;12.27;9.35;;;6.50;99.90;;;;;;5053254;28;20099;-64
2022/03/08 09:39:47;;;;;;;12.00;9.43;;;6.60;99.90;;;;;;5052833;28;20056;-66
2022/03/08 09:42:12;;;;;;;11.60;8.85;;;6.70;99.90;;;;;;5051975;28;20140;-64
2022/03/08 09:44:38;;;;;;;11.88;8.93;;;6.80;99.90;;;;;;5053791;28;20053;-64
2022/03/08 09:47:05;;;;;;;11.15;9.48;;;6.80;99.90;;;;;;5053641;28;20053;-64
2022/03/08 09:49:31;;;;;;;11.00;8.93;;;6.90;99.90;;;;;;5053163;28;20057;-63
2022/03/08 09:51:57;;;;;;;11.57;9.02;;;7.00;99.90;;;;;;5053441;28;20473;-65
2022/03/08 09:54:22;;;;;;;11.50;8.55;;;7.10;99.90;;;;;;5053743;28;20140;-64
2022/03/08 09:56:48;;;;;;;10.98;8.38;;;7.20;99.90;;;;;;5047073;28;20439;-63
2022/03/08 09:59:18;;;;;;;11.52;8.15;;;7.30;99.90;;;;;;5041759;28;20076;-64
2022/03/08 10:01:45;;;;;;;10.55;7.85;;;7.30;99.90;;;;;;5041328;28;20041;-66
2022/03/08 10:04:18;;;;;;;10.25;7.25;;;7.40;83.20;;;;;;5044844;28;20390;-64
2022/03/08 10:06:47;;;;;;;8.82;7.53;;;7.50;84.70;;;;;;5064054;28;20057;-65
2022/03/08 10:09:23;;;;;;;10.38;7.88;;;7.60;92.00;;;;;;5052463;28;20473;-63
2022/03/08 10:11:54;;;;;;;10.70;8.77;;;7.70;74.80;;;;;;5051844;28;20408;-65
2022/03/08 10:14:33;;;;;;;10.20;7.53;;;7.70;90.00;;;;;;5052054;28;20099;-63
2022/03/08 10:16:58;;;;;;;9.90;8.32;;;7.80;76.20;;;;;;5050754;28;20045;-64
2022/03/08 10:19:24;;;;;;;11.10;8.57;;;7.90;83.40;;;;;;5046080;28;20056;-62
2022/03/08 10:21:54;;;;;;;10.43;7.70;;;7.90;86.50;;;;;;5052022;28;20075;-63
2022/03/08 10:24:20;;;;;;;9.40;8.23;;;7.90;80.70;;;;;;5037140;28;20482;-64
2022/03/08 10:26:56;;;;;;;8.77;7.97;;;8.00;80.30;;;;;;5051340;28;20119;-66
2022/03/08 10:29:25;;;;;;;9.77;7.93;;;8.00;79.30;;;;;;5051856;28;20139;-65
2022/03/08 10:32:08;;;;;;;11.95;8.60;;;8.10;75.80;;;;;;5047249;28;20493;-64
2022/03/08 10:34:34;;;;;;;;;;;8.20;75.60;;;;;;5035121;28;20056;-63
2022/03/08 10:37:23;;;;;;;9.13;7.35;;;8.30;74.80;;;;;;5052151;28;19927;-63
2022/03/08 10:40:02;;;;;;;9.52;7.85;;;8.40;75.30;;;;;;5053389;28;20049;-63
2022/03/08 10:42:31;;;;;;;8.40;7.47;;;8.50;77.10;;;;;;5051490;28;20102;-63
2022/03/08 10:45:11;;;;;;;6.88;6.18;;;8.60;73.40;;;;;;5052257;28;20060;-63
2022/03/08 10:47:41;;;;;;;7.60;6.47;;;8.70;69.80;;;;;;5035125;28;20072;-63
2022/03/08 10:50:09;;;;;;;8.00;6.15;;;8.70;67.90;;;;;;5051125;28;20057;-64
2022/03/08 10:52:40;;;;;;;7.75;6.38;;;8.70;66.10;;;;;;5052028;28;20127;-62
2022/03/08 10:55:16;;;;;;;10.13;6.73;;;8.80;68.20;;;;;;5051554;28;20049;-64
2022/03/08 10:57:45;;;;;;;7.97;6.40;;;8.80;64.40;;;;;;5049839;28;20455;-63
2022/03/08 11:00:13;;;;;;;7.22;6.13;;;8.80;67.30;;;;;;5050170;28;20088;-62
2022/03/08 11:02:49;;;;;;;6.90;6.20;;;8.90;67.00;;;;;;5065670;28;20046;-66
2022/03/08 11:05:17;;;;;;;7.53;6.47;;;9.00;67.00;;;;;;5050626;28;20052;-65
2022/03/08 11:07:42;;;;;;;8.57;5.95;;;9.00;65.90;;;;;;5050682;28;20405;-65
2022/03/08 11:10:10;;;;;;;9.38;6.05;;;9.10;64.60;;;;;;5050659;28;20049;-65
2022/03/08 11:12:37;;;;;;;6.38;5.63;;;9.10;65.70;;;;;;5051205;28;20095;-64
2022/03/08 11:15:05;;;;;;;8.43;6.13;;;9.30;64.60;;;;;;5051016;28;20060;-64
2022/03/08 11:17:33;;;;;;;7.55;5.85;;;9.40;63.90;;;;;;5050929;28;20520;-65
2022/03/08 11:20:02;;;;;;;7.68;5.68;;;9.40;61.40;;;;;;5052039;28;20053;-65
2022/03/08 11:22:28;;;;;;;5.90;5.30;;;9.30;60.60;;;;;;5048749;28;20076;-66
2022/03/08 11:24:55;;;;;;;9.30;5.97;;;9.30;60.20;;;;;;5046187;28;20486;-66
2022/03/08 11:27:22;;;;;;;7.15;5.97;;;9.30;61.50;;;;;;5051216;28;20063;-64
2022/03/08 11:29:49;;;;;;;6.45;5.75;;;9.30;62.30;;;;;;5052065;28;20059;-66
2022/03/08 11:32:27;;;;;;;8.10;5.95;;;9.30;60.20;;;;;;5050791;28;20392;-64
2022/03/08 11:35:11;;;;;;;6.75;5.47;;;9.30;62.40;;;;;;5047959;28;20041;-67
2022/03/08 11:37:40;;;;;;;6.72;5.57;;;9.40;60.10;;;;;;5050301;28;20064;-64
2022/03/08 11:40:18;;;;;;;6.05;5.45;;;9.40;61.00;;;;;;5035219;28;20061;-65
2022/03/08 11:42:46;;;;;;;6.97;5.57;;;9.50;60.00;;;;;;5051138;28;20049;-65
2022/03/08 11:45:19;;;;;;;8.23;5.97;;;9.50;60.70;;;;;;5050229;28;20061;-64
2022/03/08 11:47:59;;;;;;;6.78;5.60;;;9.60;58.80;;;;;;5050634;28;20045;-65
2022/03/08 11:50:32;;;;;;;7.85;5.55;;;9.60;61.10;;;;;;5047804;28;20045;-66
2022/03/08 11:53:11;;;;;;;6.25;4.95;;;9.70;61.00;;;;;;5049331;28;20040;-65
2022/03/08 11:55:42;;;;;;;6.95;5.00;;;9.80;60.90;;;;;;5048897;28;20134;-65
2022/03/08 11:58:10;;;;;;;7.63;4.97;;;9.90;61.10;;;;;;5050232;28;20053;-65
2022/03/08 12:00:40;;;;;;;6.00;5.07;;;9.90;59.60;;;;;;5052738;28;20053;-66
2022/03/08 12:03:16;;;;;;;5.68;4.85;;;10.00;60.30;;;;;;5051078;28;20048;-66
2022/03/08 12:05:55;;;;;;;4.72;4.22;;;10.10;58.10;;;;;;5050973;28;20178;-65
2022/03/08 12:08:29;;;;;;;5.55;4.95;;;10.20;58.60;;;;;;5048612;28;20153;-65
2022/03/08 12:11:00;;;;;;;4.95;4.05;;;10.10;58.40;;;;;;5052452;28;20057;-65
2022/03/08 12:13:28;;;;;;;5.93;4.43;;;10.20;57.50;;;;;;5050478;28;20184;-63
2022/03/08 12:16:08;;;;;;;4.75;4.25;;;10.10;58.10;;;;;;5035001;28;20049;-67
2022/03/08 12:18:36;;;;;;;4.93;4.20;;;10.20;57.70;;;;;;5033657;28;20107;-66
2022/03/08 12:23:47;;;;;;;5.30;4.75;;;10.40;57.30;;;;;;5047759;28;20053;-65
2022/03/08 12:26:33;;;;;;;10.32;4.07;;;10.50;58.80;;;;;;5037941;28;20049;-66
2022/03/08 12:29:21;;;;;;;4.88;4.18;;;10.50;56.60;;;;;;5054962;28;20068;-64
2022/03/08 12:31:59;;;;;;;4.53;3.97;;;10.50;54.50;;;;;;5053731;28;20453;-65
2022/03/08 12:34:39;;;;;;;7.63;4.47;;;10.50;55.50;;;;;;5054565;28;20107;-64
2022/03/08 12:37:10;;;;;;;4.65;3.78;;;10.50;55.40;;;;;;5055067;28;20057;-64
2022/03/08 12:39:52;;;;;;;6.15;3.92;;;10.40;55.50;;;;;;5054589;28;20057;-65
2022/03/08 12:42:47;;;;;;;5.00;4.30;;;10.40;55.00;;;;;;5053961;28;20336;-65